Decoded Metar for KNXF ( in ) (IATA:) | Meteo·Mobile Aviation Weather
aviador You're here:

KNXF Decoded Metar

in
Report Time2018-08-21 11:56:00
UTC Time2018-08-21 12:10:44
Flight Rules mvfr MVFR
Wind070° at 04 kt
W.Decomp.*RWY 09: 3.8 kt HW 1.4 kt LCW
W.Rank070° ranks 7
Current wind is below 070° avg. (5.7)
Visibility9999 m
Phenomena:Rain
Clouds:Overcast 016 Hf
Expected CloudBase > 1,600 ft AGL from Temp-Dew spread
Ceiling1,600 ft
Temp22°C
Dew Point18°C (78% RH)
QNH1013 hPa
Raw Report
KNXF 211156Z AUTO 07004KT 9SM RA OVC016 22/18 A2992 RMK AO2 SLP214
6//// 7//// T02220178 10228 20222 56007 PNO $=

Extra information for KNXF:More info

Social comments